Farwell, Michigan
Current Conditions -  °F | °C
As of 9:14 PM on Sunday 25 Jan 2015 (Local Time) from KMOP Reporting Station
Clear Clear  
Wind Chill:   Ceiling: Unl
Heat Index: 15°   Visibility: 10mi
Dew Point:   Wind: 7mph
Humidity: 70%   Direction: 30°NNE
Pressure: 30.04"   Gusts: NA
Location:  43.84°N, 84.87°W
Report Text: KMOP 260214Z AUTO 03006KT 10SM CLR M09/M14 A3004 RMK AO2 T10941140
Loading
Personal Weather Stations






























Interactive Weather Map New forecast layout! Learn more

10-Day Weather Forecast

Advertisements
Track Severe Weather on mobile